sensor_id;sensor_type;location;lat;lon;timestamp;P1;durP1;ratioP1;P2;durP2;ratioP2
12151;SDS011;6139;51.274;7.128;2023-04-15T00:00:08;6.70;;;4.20;;
12151;SDS011;6139;51.274;7.128;2023-04-15T00:01:14;6.95;;;4.32;;
12151;SDS011;6139;51.274;7.128;2023-04-15T00:02:18;6.65;;;4.05;;
12151;SDS011;6139;51.274;7.128;2023-04-15T00:03:21;6.60;;;4.25;;
12151;SDS011;6139;51.274;7.128;2023-04-15T00:04:22;6.47;;;4.25;;
12151;SDS011;6139;51.274;7.128;2023-04-15T00:05:24;6.07;;;4.13;;
12151;SDS011;6139;51.274;7.128;2023-04-15T00:06:25;7.70;;;3.83;;
12151;SDS011;6139;51.274;7.128;2023-04-15T00:07:27;6.63;;;4.13;;
12151;SDS011;6139;51.274;7.128;2023-04-15T00:08:29;6.05;;;4.18;;
12151;SDS011;6139;51.274;7.128;2023-04-15T00:09:31;6.68;;;3.72;;
12151;SDS011;6139;51.274;7.128;2023-04-15T00:10:32;5.78;;;3.92;;
12151;SDS011;6139;51.274;7.128;2023-04-15T00:11:34;5.20;;;3.70;;
12151;SDS011;6139;51.274;7.128;2023-04-15T00:12:35;7.88;;;3.83;;
12151;SDS011;6139;51.274;7.128;2023-04-15T00:13:37;9.77;;;4.55;;
12151;SDS011;6139;51.274;7.128;2023-04-15T00:14:38;8.07;;;4.00;;
12151;SDS011;6139;51.274;7.128;2023-04-15T00:15:40;5.68;;;4.10;;
12151;SDS011;6139;51.274;7.128;2023-04-15T00:16:41;7.03;;;4.13;;
12151;SDS011;6139;51.274;7.128;2023-04-15T00:17:43;4.68;;;3.90;;
12151;SDS011;6139;51.274;7.128;2023-04-15T00:18:46;6.35;;;3.80;;
12151;SDS011;6139;51.274;7.128;2023-04-15T00:19:48;6.50;;;3.67;;
12151;SDS011;6139;51.274;7.128;2023-04-15T00:20:49;7.97;;;4.68;;
12151;SDS011;6139;51.274;7.128;2023-04-15T00:21:51;5.90;;;4.25;;
12151;SDS011;6139;51.274;7.128;2023-04-15T00:22:52;5.97;;;4.47;;
12151;SDS011;6139;51.274;7.128;2023-04-15T00:23:54;5.55;;;3.35;;
12151;SDS011;6139;51.274;7.128;2023-04-15T00:24:55;6.60;;;3.80;;
12151;SDS011;6139;51.274;7.128;2023-04-15T00:25:57;7.40;;;3.77;;
12151;SDS011;6139;51.274;7.128;2023-04-15T00:26:58;6.67;;;3.90;;
12151;SDS011;6139;51.274;7.128;2023-04-15T00:28:01;6.13;;;3.83;;
12151;SDS011;6139;51.274;7.128;2023-04-15T00:29:01;6.47;;;4.03;;
12151;SDS011;6139;51.274;7.128;2023-04-15T00:30:04;8.07;;;4.03;;
12151;SDS011;6139;51.274;7.128;2023-04-15T00:31:06;5.70;;;4.03;;
12151;SDS011;6139;51.274;7.128;2023-04-15T00:32:09;6.38;;;3.92;;
12151;SDS011;6139;51.274;7.128;2023-04-15T00:33:10;7.57;;;3.75;;
12151;SDS011;6139;51.274;7.128;2023-04-15T00:34:14;6.10;;;3.97;;
12151;SDS011;6139;51.274;7.128;2023-04-15T00:35:16;4.85;;;4.00;;
12151;SDS011;6139;51.274;7.128;2023-04-15T00:36:18;5.23;;;3.83;;
12151;SDS011;6139;51.274;7.128;2023-04-15T00:37:19;5.70;;;4.17;;
12151;SDS011;6139;51.274;7.128;2023-04-15T00:38:22;6.40;;;4.07;;
12151;SDS011;6139;51.274;7.128;2023-04-15T00:39:23;4.40;;;4.00;;
12151;SDS011;6139;51.274;7.128;2023-04-15T00:40:25;4.60;;;3.60;;
12151;SDS011;6139;51.274;7.128;2023-04-15T00:41:27;6.40;;;4.00;;
12151;SDS011;6139;51.274;7.128;2023-04-15T00:42:29;5.70;;;4.00;;
12151;SDS011;6139;51.274;7.128;2023-04-15T00:43:30;5.83;;;4.00;;
12151;SDS011;6139;51.274;7.128;2023-04-15T00:44:32;4.87;;;3.87;;
12151;SDS011;6139;51.274;7.128;2023-04-15T00:45:34;6.72;;;4.10;;
12151;SDS011;6139;51.274;7.128;2023-04-15T00:46:36;6.40;;;4.10;;
12151;SDS011;6139;51.274;7.128;2023-04-15T00:47:40;7.75;;;4.15;;
12151;SDS011;6139;51.274;7.128;2023-04-15T00:48:43;9.00;;;3.90;;
12151;SDS011;6139;51.274;7.128;2023-04-15T00:49:46;4.65;;;4.20;;
12151;SDS011;6139;51.274;7.128;2023-04-15T00:50:48;7.72;;;3.85;;
12151;SDS011;6139;51.274;7.128;2023-04-15T00:51:49;6.97;;;4.32;;
12151;SDS011;6139;51.274;7.128;2023-04-15T00:52:51;5.28;;;3.83;;
12151;SDS011;6139;51.274;7.128;2023-04-15T00:53:52;6.78;;;4.80;;
12151;SDS011;6139;51.274;7.128;2023-04-15T00:54:54;8.03;;;4.10;;
12151;SDS011;6139;51.274;7.128;2023-04-15T00:55:55;6.78;;;4.53;;
12151;SDS011;6139;51.274;7.128;2023-04-15T00:56:57;6.47;;;4.37;;
12151;SDS011;6139;51.274;7.128;2023-04-15T00:57:59;6.38;;;4.03;;
12151;SDS011;6139;51.274;7.128;2023-04-15T00:59:01;6.45;;;4.30;;
12151;SDS011;6139;51.274;7.128;2023-04-15T01:00:03;7.23;;;4.63;;
12151;SDS011;6139;51.274;7.128;2023-04-15T01:01:07;6.80;;;4.03;;
12151;SDS011;6139;51.274;7.128;2023-04-15T01:02:09;10.13;;;4.73;;
12151;SDS011;6139;51.274;7.128;2023-04-15T01:03:10;7.70;;;4.10;;
12151;SDS011;6139;51.274;7.128;2023-04-15T01:04:12;5.37;;;3.90;;
12151;SDS011;6139;51.274;7.128;2023-04-15T01:05:15;7.00;;;4.55;;
12151;SDS011;6139;51.274;7.128;2023-04-15T01:06:18;5.60;;;4.40;;
12151;SDS011;6139;51.274;7.128;2023-04-15T01:07:19;6.47;;;4.10;;
12151;SDS011;6139;51.274;7.128;2023-04-15T01:08:21;5.85;;;4.00;;
12151;SDS011;6139;51.274;7.128;2023-04-15T01:09:23;7.93;;;4.20;;
12151;SDS011;6139;51.274;7.128;2023-04-15T01:10:25;7.60;;;4.10;;
12151;SDS011;6139;51.274;7.128;2023-04-15T01:11:26;6.77;;;4.50;;
12151;SDS011;6139;51.274;7.128;2023-04-15T01:12:29;5.10;;;4.40;;
12151;SDS011;6139;51.274;7.128;2023-04-15T01:13:32;5.90;;;4.43;;
12151;SDS011;6139;51.274;7.128;2023-04-15T01:14:34;5.97;;;4.23;;
12151;SDS011;6139;51.274;7.128;2023-04-15T01:15:36;6.73;;;4.70;;
12151;SDS011;6139;51.274;7.128;2023-04-15T01:16:39;6.97;;;4.40;;
12151;SDS011;6139;51.274;7.128;2023-04-15T01:17:40;5.18;;;4.13;;
12151;SDS011;6139;51.274;7.128;2023-04-15T01:18:42;5.28;;;4.15;;
12151;SDS011;6139;51.274;7.128;2023-04-15T01:19:43;5.60;;;4.30;;
12151;SDS011;6139;51.274;7.128;2023-04-15T01:20:47;6.60;;;4.63;;
12151;SDS011;6139;51.274;7.128;2023-04-15T01:21:48;5.47;;;4.20;;
12151;SDS011;6139;51.274;7.128;2023-04-15T01:22:50;5.83;;;4.60;;
12151;SDS011;6139;51.274;7.128;2023-04-15T01:23:51;5.22;;;4.20;;
12151;SDS011;6139;51.274;7.128;2023-04-15T01:24:58;7.13;;;4.80;;
12151;SDS011;6139;51.274;7.128;2023-04-15T01:26:06;8.27;;;5.07;;
12151;SDS011;6139;51.274;7.128;2023-04-15T01:27:08;7.07;;;4.50;;
12151;SDS011;6139;51.274;7.128;2023-04-15T01:28:10;8.00;;;4.67;;
12151;SDS011;6139;51.274;7.128;2023-04-15T01:29:12;6.67;;;4.83;;
12151;SDS011;6139;51.274;7.128;2023-04-15T01:30:13;7.13;;;4.90;;
12151;SDS011;6139;51.274;7.128;2023-04-15T01:31:15;6.63;;;4.73;;
12151;SDS011;6139;51.274;7.128;2023-04-15T01:32:16;7.30;;;4.00;;
12151;SDS011;6139;51.274;7.128;2023-04-15T01:33:37;5.37;;;4.70;;
12151;SDS011;6139;51.274;7.128;2023-04-15T01:34:58;7.67;;;4.83;;
12151;SDS011;6139;51.274;7.128;2023-04-15T01:36:18;5.63;;;4.33;;
12151;SDS011;6139;51.274;7.128;2023-04-15T01:37:20;5.80;;;4.60;;
12151;SDS011;6139;51.274;7.128;2023-04-15T01:38:24;4.93;;;4.13;;
12151;SDS011;6139;51.274;7.128;2023-04-15T01:39:27;5.17;;;4.40;;
12151;SDS011;6139;51.274;7.128;2023-04-15T01:40:30;5.20;;;4.40;;
12151;SDS011;6139;51.274;7.128;2023-04-15T01:41:35;6.53;;;4.83;;
12151;SDS011;6139;51.274;7.128;2023-04-15T01:42:37;7.30;;;4.70;;
12151;SDS011;6139;51.274;7.128;2023-04-15T01:43:40;6.43;;;5.10;;
12151;SDS011;6139;51.274;7.128;2023-04-15T01:44:44;6.77;;;4.93;;
12151;SDS011;6139;51.274;7.128;2023-04-15T01:45:47;6.23;;;5.23;;
12151;SDS011;6139;51.274;7.128;2023-04-15T01:46:49;6.60;;;5.23;;
12151;SDS011;6139;51.274;7.128;2023-04-15T01:47:53;7.40;;;5.40;;
12151;SDS011;6139;51.274;7.128;2023-04-15T01:48:55;7.50;;;5.17;;
12151;SDS011;6139;51.274;7.128;2023-04-15T01:50:00;6.60;;;5.25;;
12151;SDS011;6139;51.274;7.128;2023-04-15T01:51:03;7.10;;;5.43;;
12151;SDS011;6139;51.274;7.128;2023-04-15T01:52:07;6.93;;;5.50;;
12151;SDS011;6139;51.274;7.128;2023-04-15T01:53:09;6.60;;;5.60;;
12151;SDS011;6139;51.274;7.128;2023-04-15T01:54:12;7.38;;;5.35;;
12151;SDS011;6139;51.274;7.128;2023-04-15T01:55:15;7.28;;;5.45;;
12151;SDS011;6139;51.274;7.128;2023-04-15T01:56:20;8.38;;;5.30;;
12151;SDS011;6139;51.274;7.128;2023-04-15T01:57:24;6.70;;;5.07;;
12151;SDS011;6139;51.274;7.128;2023-04-15T01:58:27;5.43;;;4.83;;
12151;SDS011;6139;51.274;7.128;2023-04-15T01:59:29;10.60;;;5.68;;
12151;SDS011;6139;51.274;7.128;2023-04-15T02:00:33;7.60;;;5.60;;
12151;SDS011;6139;51.274;7.128;2023-04-15T02:01:36;8.87;;;5.60;;
12151;SDS011;6139;51.274;7.128;2023-04-15T02:02:39;7.33;;;5.53;;
12151;SDS011;6139;51.274;7.128;2023-04-15T02:03:41;7.82;;;5.75;;
12151;SDS011;6139;51.274;7.128;2023-04-15T02:04:44;7.23;;;5.37;;
12151;SDS011;6139;51.274;7.128;2023-04-15T02:05:46;6.20;;;5.40;;
12151;SDS011;6139;51.274;7.128;2023-04-15T02:06:50;8.87;;;5.33;;
12151;SDS011;6139;51.274;7.128;2023-04-15T02:07:52;6.33;;;5.27;;
12151;SDS011;6139;51.274;7.128;2023-04-15T02:08:55;7.90;;;6.00;;
12151;SDS011;6139;51.274;7.128;2023-04-15T02:09:59;7.37;;;5.50;;
12151;SDS011;6139;51.274;7.128;2023-04-15T02:11:02;6.50;;;4.97;;
12151;SDS011;6139;51.274;7.128;2023-04-15T02:12:06;8.23;;;5.83;;
12151;SDS011;6139;51.274;7.128;2023-04-15T02:13:11;8.43;;;5.67;;
12151;SDS011;6139;51.274;7.128;2023-04-15T02:14:13;7.67;;;5.67;;
12151;SDS011;6139;51.274;7.128;2023-04-15T02:15:16;5.20;;;4.63;;
12151;SDS011;6139;51.274;7.128;2023-04-15T02:16:19;12.50;;;6.07;;
12151;SDS011;6139;51.274;7.128;2023-04-15T02:17:22;8.87;;;5.70;;
12151;SDS011;6139;51.274;7.128;2023-04-15T02:18:24;6.60;;;5.30;;
12151;SDS011;6139;51.274;7.128;2023-04-15T02:19:27;9.10;;;5.77;;
12151;SDS011;6139;51.274;7.128;2023-04-15T02:20:30;6.97;;;5.77;;
12151;SDS011;6139;51.274;7.128;2023-04-15T02:21:33;8.27;;;5.77;;
12151;SDS011;6139;51.274;7.128;2023-04-15T02:22:36;7.60;;;6.07;;
12151;SDS011;6139;51.274;7.128;2023-04-15T02:23:39;7.13;;;5.70;;
12151;SDS011;6139;51.274;7.128;2023-04-15T02:24:42;6.70;;;5.60;;
12151;SDS011;6139;51.274;7.128;2023-04-15T02:25:46;8.23;;;6.00;;
12151;SDS011;6139;51.274;7.128;2023-04-15T02:26:49;7.90;;;6.13;;
12151;SDS011;6139;51.274;7.128;2023-04-15T02:27:52;6.47;;;5.33;;
12151;SDS011;6139;51.274;7.128;2023-04-15T02:28:57;7.50;;;5.80;;
12151;SDS011;6139;51.274;7.128;2023-04-15T02:29:59;8.43;;;5.67;;
12151;SDS011;6139;51.274;7.128;2023-04-15T02:31:04;8.10;;;6.10;;
12151;SDS011;6139;51.274;7.128;2023-04-15T02:32:06;7.03;;;5.67;;
12151;SDS011;6139;51.274;7.128;2023-04-15T02:33:10;7.75;;;6.07;;
12151;SDS011;6139;51.274;7.128;2023-04-15T02:34:12;8.10;;;6.47;;
12151;SDS011;6139;51.274;7.128;2023-04-15T02:35:19;9.00;;;6.30;;
12151;SDS011;6139;51.274;7.128;2023-04-15T02:36:21;9.73;;;6.13;;
12151;SDS011;6139;51.274;7.128;2023-04-15T02:37:25;6.53;;;5.53;;
12151;SDS011;6139;51.274;7.128;2023-04-15T02:38:30;6.40;;;5.63;;
12151;SDS011;6139;51.274;7.128;2023-04-15T02:39:33;7.90;;;6.00;;
12151;SDS011;6139;51.274;7.128;2023-04-15T02:40:35;7.47;;;6.30;;
12151;SDS011;6139;51.274;7.128;2023-04-15T02:41:39;7.50;;;5.77;;
12151;SDS011;6139;51.274;7.128;2023-04-15T02:42:41;6.87;;;6.10;;
12151;SDS011;6139;51.274;7.128;2023-04-15T02:43:48;7.53;;;6.20;;
12151;SDS011;6139;51.274;7.128;2023-04-15T02:44:52;7.43;;;6.03;;
12151;SDS011;6139;51.274;7.128;2023-04-15T02:45:57;7.72;;;6.25;;
12151;SDS011;6139;51.274;7.128;2023-04-15T02:47:01;9.63;;;6.37;;
12151;SDS011;6139;51.274;7.128;2023-04-15T02:48:05;6.83;;;5.60;;
12151;SDS011;6139;51.274;7.128;2023-04-15T02:49:08;7.97;;;6.10;;
12151;SDS011;6139;51.274;7.128;2023-04-15T02:50:11;6.83;;;5.93;;
12151;SDS011;6139;51.274;7.128;2023-04-15T02:51:17;7.75;;;6.50;;
12151;SDS011;6139;51.274;7.128;2023-04-15T02:52:20;7.50;;;6.13;;
12151;SDS011;6139;51.274;7.128;2023-04-15T02:53:24;6.88;;;5.65;;
12151;SDS011;6139;51.274;7.128;2023-04-15T02:54:28;6.87;;;5.93;;
12151;SDS011;6139;51.274;7.128;2023-04-15T02:55:30;7.27;;;5.80;;
12151;SDS011;6139;51.274;7.128;2023-04-15T02:56:33;6.45;;;5.60;;
12151;SDS011;6139;51.274;7.128;2023-04-15T02:57:35;7.07;;;6.10;;
12151;SDS011;6139;51.274;7.128;2023-04-15T02:58:42;11.57;;;6.77;;
12151;SDS011;6139;51.274;7.128;2023-04-15T02:59:45;8.40;;;5.97;;
12151;SDS011;6139;51.274;7.128;2023-04-15T03:00:50;7.37;;;6.27;;
12151;SDS011;6139;51.274;7.128;2023-04-15T03:01:53;6.60;;;5.90;;
12151;SDS011;6139;51.274;7.128;2023-04-15T03:02:57;7.65;;;6.40;;
12151;SDS011;6139;51.274;7.128;2023-04-15T03:04:03;7.97;;;6.43;;
12151;SDS011;6139;51.274;7.128;2023-04-15T03:05:06;7.70;;;5.80;;
12151;SDS011;6139;51.274;7.128;2023-04-15T03:06:13;6.75;;;6.03;;
12151;SDS011;6139;51.274;7.128;2023-04-15T03:07:16;8.45;;;6.10;;
12151;SDS011;6139;51.274;7.128;2023-04-15T03:08:20;7.63;;;6.70;;
12151;SDS011;6139;51.274;7.128;2023-04-15T03:09:22;8.37;;;6.50;;
12151;SDS011;6139;51.274;7.128;2023-04-15T03:10:25;7.63;;;6.70;;
12151;SDS011;6139;51.274;7.128;2023-04-15T03:11:28;6.93;;;5.83;;
12151;SDS011;6139;51.274;7.128;2023-04-15T03:12:32;8.97;;;7.03;;
12151;SDS011;6139;51.274;7.128;2023-04-15T03:13:34;9.80;;;6.43;;
12151;SDS011;6139;51.274;7.128;2023-04-15T03:14:45;7.30;;;6.60;;
12151;SDS011;6139;51.274;7.128;2023-04-15T03:15:49;8.20;;;7.10;;
12151;SDS011;6139;51.274;7.128;2023-04-15T03:16:52;11.67;;;7.03;;
12151;SDS011;6139;51.274;7.128;2023-04-15T03:17:55;7.53;;;6.43;;
12151;SDS011;6139;51.274;7.128;2023-04-15T03:18:58;8.10;;;6.97;;
12151;SDS011;6139;51.274;7.128;2023-04-15T03:20:00;8.87;;;6.60;;
12151;SDS011;6139;51.274;7.128;2023-04-15T03:21:04;8.93;;;7.43;;
12151;SDS011;6139;51.274;7.128;2023-04-15T03:22:10;8.17;;;6.60;;
12151;SDS011;6139;51.274;7.128;2023-04-15T03:23:13;10.70;;;7.47;;
12151;SDS011;6139;51.274;7.128;2023-04-15T03:24:15;8.80;;;7.28;;
12151;SDS011;6139;51.274;7.128;2023-04-15T03:25:19;9.70;;;7.23;;
12151;SDS011;6139;51.274;7.128;2023-04-15T03:26:25;7.53;;;6.83;;
12151;SDS011;6139;51.274;7.128;2023-04-15T03:27:31;8.23;;;7.33;;
12151;SDS011;6139;51.274;7.128;2023-04-15T03:28:35;9.53;;;6.80;;
12151;SDS011;6139;51.274;7.128;2023-04-15T03:29:39;12.07;;;7.00;;
12151;SDS011;6139;51.274;7.128;2023-04-15T03:30:42;7.27;;;6.57;;
12151;SDS011;6139;51.274;7.128;2023-04-15T03:31:47;8.37;;;6.57;;
12151;SDS011;6139;51.274;7.128;2023-04-15T03:32:49;7.23;;;6.50;;
12151;SDS011;6139;51.274;7.128;2023-04-15T03:33:52;9.27;;;7.53;;
12151;SDS011;6139;51.274;7.128;2023-04-15T03:34:54;7.93;;;6.60;;
12151;SDS011;6139;51.274;7.128;2023-04-15T03:35:57;10.43;;;6.50;;
12151;SDS011;6139;51.274;7.128;2023-04-15T03:37:00;8.97;;;7.33;;
12151;SDS011;6139;51.274;7.128;2023-04-15T03:38:03;7.90;;;7.07;;
12151;SDS011;6139;51.274;7.128;2023-04-15T03:39:05;7.33;;;6.33;;
12151;SDS011;6139;51.274;7.128;2023-04-15T03:40:08;9.10;;;6.60;;
12151;SDS011;6139;51.274;7.128;2023-04-15T03:41:12;7.63;;;6.63;;
12151;SDS011;6139;51.274;7.128;2023-04-15T03:42:15;7.70;;;7.00;;
12151;SDS011;6139;51.274;7.128;2023-04-15T03:43:17;9.00;;;6.50;;
12151;SDS011;6139;51.274;7.128;2023-04-15T03:44:20;8.97;;;6.77;;
12151;SDS011;6139;51.274;7.128;2023-04-15T03:45:22;7.18;;;6.43;;
12151;SDS011;6139;51.274;7.128;2023-04-15T03:46:26;7.15;;;6.40;;
12151;SDS011;6139;51.274;7.128;2023-04-15T03:47:29;8.45;;;6.43;;
12151;SDS011;6139;51.274;7.128;2023-04-15T03:48:32;9.30;;;6.87;;
12151;SDS011;6139;51.274;7.128;2023-04-15T03:49:35;7.83;;;6.50;;
12151;SDS011;6139;51.274;7.128;2023-04-15T03:50:38;9.83;;;6.50;;
12151;SDS011;6139;51.274;7.128;2023-04-15T03:51:40;9.50;;;6.70;;
12151;SDS011;6139;51.274;7.128;2023-04-15T03:52:43;7.73;;;6.53;;
12151;SDS011;6139;51.274;7.128;2023-04-15T03:53:46;7.37;;;6.60;;
12151;SDS011;6139;51.274;7.128;2023-04-15T03:54:49;7.77;;;6.80;;
12151;SDS011;6139;51.274;7.128;2023-04-15T03:55:51;7.47;;;6.77;;
12151;SDS011;6139;51.274;7.128;2023-04-15T03:56:55;8.70;;;6.90;;
12151;SDS011;6139;51.274;7.128;2023-04-15T03:57:57;7.65;;;6.57;;
12151;SDS011;6139;51.274;7.128;2023-04-15T03:59:00;9.93;;;7.30;;
12151;SDS011;6139;51.274;7.128;2023-04-15T04:00:02;9.97;;;7.10;;
12151;SDS011;6139;51.274;7.128;2023-04-15T04:01:13;6.82;;;6.20;;
12151;SDS011;6139;51.274;7.128;2023-04-15T04:02:15;7.82;;;6.55;;
12151;SDS011;6139;51.274;7.128;2023-04-15T04:03:20;7.57;;;6.78;;
12151;SDS011;6139;51.274;7.128;2023-04-15T04:04:22;8.17;;;6.87;;
12151;SDS011;6139;51.274;7.128;2023-04-15T04:05:25;8.37;;;6.83;;
12151;SDS011;6139;51.274;7.128;2023-04-15T04:06:27;9.23;;;6.70;;
12151;SDS011;6139;51.274;7.128;2023-04-15T04:07:31;9.03;;;6.60;;
12151;SDS011;6139;51.274;7.128;2023-04-15T04:08:33;8.30;;;7.30;;
12151;SDS011;6139;51.274;7.128;2023-04-15T04:09:37;7.43;;;6.40;;
12151;SDS011;6139;51.274;7.128;2023-04-15T04:10:41;8.73;;;6.90;;
12151;SDS011;6139;51.274;7.128;2023-04-15T04:11:44;8.50;;;7.07;;
12151;SDS011;6139;51.274;7.128;2023-04-15T04:12:46;8.10;;;6.70;;
12151;SDS011;6139;51.274;7.128;2023-04-15T04:13:49;8.02;;;6.97;;
12151;SDS011;6139;51.274;7.128;2023-04-15T04:14:51;8.30;;;7.00;;
12151;SDS011;6139;51.274;7.128;2023-04-15T04:15:55;8.57;;;7.10;;
12151;SDS011;6139;51.274;7.128;2023-04-15T04:16:57;8.30;;;6.83;;
12151;SDS011;6139;51.274;7.128;2023-04-15T04:18:00;7.73;;;6.93;;
12151;SDS011;6139;51.274;7.128;2023-04-15T04:19:03;8.13;;;7.03;;
12151;SDS011;6139;51.274;7.128;2023-04-15T04:20:07;7.30;;;6.47;;
12151;SDS011;6139;51.274;7.128;2023-04-15T04:21:10;8.40;;;6.97;;
12151;SDS011;6139;51.274;7.128;2023-04-15T04:22:13;9.67;;;7.27;;
12151;SDS011;6139;51.274;7.128;2023-04-15T04:23:15;10.87;;;6.70;;
12151;SDS011;6139;51.274;7.128;2023-04-15T04:24:18;7.47;;;6.67;;
12151;SDS011;6139;51.274;7.128;2023-04-15T04:25:21;8.13;;;6.72;;
12151;SDS011;6139;51.274;7.128;2023-04-15T04:26:24;9.60;;;7.00;;
12151;SDS011;6139;51.274;7.128;2023-04-15T04:27:27;7.50;;;6.70;;
12151;SDS011;6139;51.274;7.128;2023-04-15T04:28:30;10.47;;;7.13;;
12151;SDS011;6139;51.274;7.128;2023-04-15T04:29:33;7.78;;;6.55;;
12151;SDS011;6139;51.274;7.128;2023-04-15T04:30:36;8.35;;;7.18;;
12151;SDS011;6139;51.274;7.128;2023-04-15T04:31:38;7.97;;;6.47;;
12151;SDS011;6139;51.274;7.128;2023-04-15T04:32:42;7.95;;;6.05;;
12151;SDS011;6139;51.274;7.128;2023-04-15T04:33:44;8.18;;;6.07;;
12151;SDS011;6139;51.274;7.128;2023-04-15T04:34:48;9.80;;;6.43;;
12151;SDS011;6139;51.274;7.128;2023-04-15T04:35:51;9.57;;;6.65;;
12151;SDS011;6139;51.274;7.128;2023-04-15T04:36:54;8.45;;;6.93;;
12151;SDS011;6139;51.274;7.128;2023-04-15T04:37:56;9.02;;;7.18;;
12151;SDS011;6139;51.274;7.128;2023-04-15T04:38:59;8.87;;;6.87;;
12151;SDS011;6139;51.274;7.128;2023-04-15T04:40:01;8.10;;;6.50;;
12151;SDS011;6139;51.274;7.128;2023-04-15T04:41:05;7.87;;;7.07;;
12151;SDS011;6139;51.274;7.128;2023-04-15T04:42:07;8.17;;;6.67;;
12151;SDS011;6139;51.274;7.128;2023-04-15T04:43:11;8.37;;;7.30;;
12151;SDS011;6139;51.274;7.128;2023-04-15T04:44:13;9.67;;;7.17;;
12151;SDS011;6139;51.274;7.128;2023-04-15T04:45:16;8.27;;;7.38;;
12151;SDS011;6139;51.274;7.128;2023-04-15T04:46:19;9.27;;;7.30;;
12151;SDS011;6139;51.274;7.128;2023-04-15T04:47:22;9.43;;;8.00;;
12151;SDS011;6139;51.274;7.128;2023-04-15T04:48:24;10.87;;;7.33;;
12151;SDS011;6139;51.274;7.128;2023-04-15T04:49:27;7.70;;;6.90;;
12151;SDS011;6139;51.274;7.128;2023-04-15T04:50:31;9.27;;;7.20;;
12151;SDS011;6139;51.274;7.128;2023-04-15T04:51:34;8.87;;;7.90;;
12151;SDS011;6139;51.274;7.128;2023-04-15T04:52:36;8.97;;;7.90;;
12151;SDS011;6139;51.274;7.128;2023-04-15T04:53:40;8.57;;;7.67;;
12151;SDS011;6139;51.274;7.128;2023-04-15T04:54:43;10.63;;;7.93;;
12151;SDS011;6139;51.274;7.128;2023-04-15T04:55:47;10.70;;;8.20;;
12151;SDS011;6139;51.274;7.128;2023-04-15T04:56:50;8.90;;;7.97;;
12151;SDS011;6139;51.274;7.128;2023-04-15T04:57:53;8.77;;;7.70;;
12151;SDS011;6139;51.274;7.128;2023-04-15T04:58:56;12.80;;;8.97;;
12151;SDS011;6139;51.274;7.128;2023-04-15T04:59:58;11.43;;;8.57;;
12151;SDS011;6139;51.274;7.128;2023-04-15T05:01:01;9.47;;;8.20;;
12151;SDS011;6139;51.274;7.128;2023-04-15T05:02:04;8.97;;;8.00;;
12151;SDS011;6139;51.274;7.128;2023-04-15T05:03:08;8.90;;;8.00;;
12151;SDS011;6139;51.274;7.128;2023-04-15T05:04:10;9.77;;;7.97;;
12151;SDS011;6139;51.274;7.128;2023-04-15T05:05:13;9.43;;;8.43;;
12151;SDS011;6139;51.274;7.128;2023-04-15T05:06:17;11.23;;;8.37;;
12151;SDS011;6139;51.274;7.128;2023-04-15T05:07:20;8.70;;;7.57;;
12151;SDS011;6139;51.274;7.128;2023-04-15T05:08:22;11.57;;;8.57;;
12151;SDS011;6139;51.274;7.128;2023-04-15T05:09:25;13.30;;;9.23;;
12151;SDS011;6139;51.274;7.128;2023-04-15T05:10:28;10.63;;;8.60;;
12151;SDS011;6139;51.274;7.128;2023-04-15T05:11:31;11.73;;;9.37;;
12151;SDS011;6139;51.274;7.128;2023-04-15T05:12:34;11.50;;;8.20;;
12151;SDS011;6139;51.274;7.128;2023-04-15T05:13:38;10.03;;;8.63;;
12151;SDS011;6139;51.274;7.128;2023-04-15T05:14:41;11.00;;;8.30;;
12151;SDS011;6139;51.274;7.128;2023-04-15T05:15:44;9.77;;;7.87;;
12151;SDS011;6139;51.274;7.128;2023-04-15T05:16:46;10.40;;;8.60;;
12151;SDS011;6139;51.274;7.128;2023-04-15T05:17:49;10.53;;;8.57;;
12151;SDS011;6139;51.274;7.128;2023-04-15T05:18:52;10.90;;;9.13;;
12151;SDS011;6139;51.274;7.128;2023-04-15T05:19:55;10.87;;;8.87;;
12151;SDS011;6139;51.274;7.128;2023-04-15T05:20:57;9.47;;;8.47;;
12151;SDS011;6139;51.274;7.128;2023-04-15T05:22:02;13.13;;;9.17;;
12151;SDS011;6139;51.274;7.128;2023-04-15T05:23:04;9.93;;;8.40;;
12151;SDS011;6139;51.274;7.128;2023-04-15T05:24:07;10.17;;;9.07;;
12151;SDS011;6139;51.274;7.128;2023-04-15T05:25:10;10.10;;;8.83;;
12151;SDS011;6139;51.274;7.128;2023-04-15T05:26:13;11.53;;;9.00;;
12151;SDS011;6139;51.274;7.128;2023-04-15T05:27:15;12.67;;;8.53;;
12151;SDS011;6139;51.274;7.128;2023-04-15T05:28:19;13.87;;;8.80;;
12151;SDS011;6139;51.274;7.128;2023-04-15T05:29:21;11.27;;;8.73;;
12151;SDS011;6139;51.274;7.128;2023-04-15T05:30:25;10.33;;;9.30;;
12151;SDS011;6139;51.274;7.128;2023-04-15T05:31:27;10.17;;;8.90;;
12151;SDS011;6139;51.274;7.128;2023-04-15T05:32:30;11.33;;;9.53;;
12151;SDS011;6139;51.274;7.128;2023-04-15T05:33:32;13.67;;;10.23;;
12151;SDS011;6139;51.274;7.128;2023-04-15T05:34:35;11.77;;;9.27;;
12151;SDS011;6139;51.274;7.128;2023-04-15T05:35:37;10.67;;;9.53;;
12151;SDS011;6139;51.274;7.128;2023-04-15T05:36:41;12.77;;;9.90;;
12151;SDS011;6139;51.274;7.128;2023-04-15T05:37:44;17.30;;;10.17;;
12151;SDS011;6139;51.274;7.128;2023-04-15T05:38:48;11.83;;;9.30;;
12151;SDS011;6139;51.274;7.128;2023-04-15T05:39:50;12.27;;;9.50;;
12151;SDS011;6139;51.274;7.128;2023-04-15T05:40:53;14.30;;;10.30;;
12151;SDS011;6139;51.274;7.128;2023-04-15T05:41:55;12.40;;;9.80;;
12151;SDS011;6139;51.274;7.128;2023-04-15T05:42:58;13.87;;;9.87;;
12151;SDS011;6139;51.274;7.128;2023-04-15T05:44:00;12.77;;;10.30;;
12151;SDS011;6139;51.274;7.128;2023-04-15T05:45:04;13.20;;;10.50;;
12151;SDS011;6139;51.274;7.128;2023-04-15T05:46:09;10.73;;;9.63;;
12151;SDS011;6139;51.274;7.128;2023-04-15T05:47:11;11.87;;;9.37;;
12151;SDS011;6139;51.274;7.128;2023-04-15T05:48:15;12.73;;;9.90;;
12151;SDS011;6139;51.274;7.128;2023-04-15T05:49:17;10.63;;;9.27;;
12151;SDS011;6139;51.274;7.128;2023-04-15T05:50:20;11.27;;;9.83;;
12151;SDS011;6139;51.274;7.128;2023-04-15T05:51:22;11.37;;;9.67;;
12151;SDS011;6139;51.274;7.128;2023-04-15T05:52:26;12.07;;;9.50;;
12151;SDS011;6139;51.274;7.128;2023-04-15T05:53:29;10.97;;;9.47;;
12151;SDS011;6139;51.274;7.128;2023-04-15T05:54:33;12.57;;;10.03;;
12151;SDS011;6139;51.274;7.128;2023-04-15T05:55:37;12.23;;;9.50;;
12151;SDS011;6139;51.274;7.128;2023-04-15T05:56:39;11.70;;;9.60;;
12151;SDS011;6139;51.274;7.128;2023-04-15T05:57:42;11.40;;;9.73;;
12151;SDS011;6139;51.274;7.128;2023-04-15T05:58:44;12.17;;;9.80;;
12151;SDS011;6139;51.274;7.128;2023-04-15T05:59:48;12.30;;;10.37;;
12151;SDS011;6139;51.274;7.128;2023-04-15T06:00:52;12.57;;;9.80;;
12151;SDS011;6139;51.274;7.128;2023-04-15T06:01:55;14.10;;;10.60;;
12151;SDS011;6139;51.274;7.128;2023-04-15T06:02:57;10.03;;;8.83;;
12151;SDS011;6139;51.274;7.128;2023-04-15T06:04:01;11.07;;;9.73;;
12151;SDS011;6139;51.274;7.128;2023-04-15T06:05:03;11.77;;;9.70;;
12151;SDS011;6139;51.274;7.128;2023-04-15T06:06:10;10.17;;;9.17;;
12151;SDS011;6139;51.274;7.128;2023-04-15T06:07:12;16.13;;;9.50;;
12151;SDS011;6139;51.274;7.128;2023-04-15T06:08:15;12.73;;;9.80;;
12151;SDS011;6139;51.274;7.128;2023-04-15T06:09:19;9.77;;;8.83;;
12151;SDS011;6139;51.274;7.128;2023-04-15T06:10:23;10.60;;;9.47;;
12151;SDS011;6139;51.274;7.128;2023-04-15T06:11:25;12.43;;;9.37;;
12151;SDS011;6139;51.274;7.128;2023-04-15T06:12:28;12.07;;;9.00;;
12151;SDS011;6139;51.274;7.128;2023-04-15T06:13:32;9.93;;;8.93;;
12151;SDS011;6139;51.274;7.128;2023-04-15T06:14:35;9.83;;;8.77;;
12151;SDS011;6139;51.274;7.128;2023-04-15T06:15:38;10.03;;;8.90;;
12151;SDS011;6139;51.274;7.128;2023-04-15T06:16:40;12.23;;;9.73;;
12151;SDS011;6139;51.274;7.128;2023-04-15T06:17:43;13.10;;;9.90;;
12151;SDS011;6139;51.274;7.128;2023-04-15T06:18:46;10.87;;;9.63;;
12151;SDS011;6139;51.274;7.128;2023-04-15T06:19:49;11.53;;;9.23;;
12151;SDS011;6139;51.274;7.128;2023-04-15T06:20:55;11.50;;;9.53;;
12151;SDS011;6139;51.274;7.128;2023-04-15T06:21:59;10.05;;;9.05;;
12151;SDS011;6139;51.274;7.128;2023-04-15T06:23:02;11.40;;;9.70;;
12151;SDS011;6139;51.274;7.128;2023-04-15T06:24:05;12.20;;;9.65;;